Capitol Logistics 31




RJAA
Tokyo-Narita International Airport
Tokyo, JP
PANC
Ted Stevens Anchorage International Airport
Anchorage, US

Route Details

Aircraft Information
Primary: Boeing 767-300BDSF
Backup: Boeing 747-400BCF
Route Data
Distance: 2981nm
Duration: 6h 20m
Recm'd Route: CUPID Y808 ALLEN Y812 SCORE R591 EHM R591 HAMND NEELL6
Origin Wx: RJAA 180200Z 23016G26KT 9999 FEW030 19/05 Q0996 NOSIG RMK 1CU030 A2944
Dest. Wx: PANC 180153Z 30003KT 10SM SCT200 12/M03 A3032 RMK AO2 SLP270 T01171033 VISNO N $
Notes: